Time;durP1;ratioP1;P1;durP2;ratioP2;P2;SDS_P1;SDS_P2;PMS_P1;PMS_P2;Temp;Humidity;BMP_temperature;BMP_pressure;BME280_temperature;BME280_humidity;BME280_pressure;Samples;Min_cycle;Max_cycle;Signal;HPM_P1;HPM_P2
2023/03/10 00:05:24;;;;;;;14.50;7.97;;;1.00;99.90;;;;;;12421554;28;20081;-81
2023/03/10 00:11:26;;;;;;;36.00;9.23;;;1.00;99.90;;;;;;12427066;28;20057;-81
2023/03/10 00:17:28;;;;;;;16.42;8.82;;;1.00;99.90;;;;;;12406559;28;20143;-81
2023/03/10 00:23:30;;;;;;;15.32;8.70;;;1.10;99.90;;;;;;12414275;28;20085;-82
2023/03/10 00:29:32;;;;;;;14.63;7.82;;;1.20;99.90;;;;;;12425295;28;20054;-82
2023/03/10 00:35:33;;;;;;;12.95;7.60;;;1.30;99.90;;;;;;12418783;28;20157;-82
2023/03/10 00:41:37;;;;;;;13.85;8.20;;;1.40;99.90;;;;;;12416322;28;20061;-81
2023/03/10 00:47:39;;;;;;;15.52;8.48;;;1.40;99.90;;;;;;12406350;28;20176;-82
2023/03/10 00:53:41;;;;;;;16.40;9.20;;;1.40;99.90;;;;;;12412464;28;20049;-82
2023/03/10 00:59:43;;;;;;;11.77;7.50;;;1.50;99.90;;;;;;12414106;28;20046;-81
2023/03/10 01:05:51;;;;;;;12.05;6.90;;;1.60;99.90;;;;;;12416217;28;20066;-82
2023/03/10 01:11:53;;;;;;;12.18;7.45;;;1.70;99.90;;;;;;12417609;28;20050;-81
2023/03/10 01:17:55;;;;;;;15.32;7.90;;;1.60;99.90;;;;;;12437112;28;20041;-81
2023/03/10 01:23:58;;;;;;;23.50;7.80;;;1.60;99.90;;;;;;12432866;28;20172;-81
2023/03/10 01:30:00;;;;;;;13.05;7.15;;;1.60;99.90;;;;;;12447863;28;20084;-81
2023/03/10 01:36:10;;;;;;;17.17;7.63;;;1.80;99.90;;;;;;12425697;28;20074;-82
2023/03/10 01:42:13;;;;;;;15.27;7.13;;;1.80;99.90;;;;;;12443515;28;20108;-81
2023/03/10 01:48:16;;;;;;;225.45;14.50;;;1.90;99.90;;;;;;12434556;28;20050;-81
2023/03/10 01:54:25;;;;;;;140.00;13.32;;;1.80;99.90;;;;;;12433351;28;20526;-80
2023/03/10 02:00:28;;;;;;;12.07;6.60;;;1.80;99.90;;;;;;12428122;28;20038;-81
2023/03/10 02:06:32;;;;;;;11.13;6.30;;;1.90;99.90;;;;;;12453616;28;20054;-80
2023/03/10 02:12:34;;;;;;;11.57;6.55;;;2.10;99.90;;;;;;12459886;28;20355;-80
2023/03/10 02:18:36;;;;;;;9.70;5.63;;;2.00;99.90;;;;;;12451347;28;20046;-81
2023/03/10 02:24:51;;;;;;;8.45;5.32;;;2.20;99.90;;;;;;12478791;28;20042;-80
2023/03/10 02:30:54;;;;;;;15.13;5.23;;;2.20;99.90;;;;;;12468485;28;20170;-81
2023/03/10 02:36:56;;;;;;;28.70;8.20;;;2.20;99.90;;;;;;12404657;28;20046;-80
2023/03/10 02:43:19;;;;;;;16.40;7.00;;;2.20;99.90;;;;;;12428003;28;20192;-80
2023/03/10 02:49:23;;;;;;;77.82;9.23;;;2.30;99.90;;;;;;12434680;28;20069;-80
2023/03/10 02:55:25;;;;;;;;;;;2.20;99.90;;;;;;12439273;28;20050;-80
2023/03/10 03:01:29;;;;;;;481.02;24.33;;;2.20;99.90;;;;;;12419717;28;19944;-81
2023/03/10 03:07:31;;;;;;;126.27;10.93;;;2.20;99.90;;;;;;12420732;28;20065;-80
2023/03/10 03:13:33;;;;;;;275.92;15.30;;;2.50;99.90;;;;;;12434762;28;20125;-80
2023/03/10 03:19:35;;;;;;;17.27;5.72;;;2.40;99.90;;;;;;12409079;28;20042;-80
2023/03/10 03:25:39;;;;;;;16.25;5.93;;;2.30;99.90;;;;;;12422823;28;20054;-80
2023/03/10 03:31:41;;;;;;;16.95;6.28;;;2.30;99.90;;;;;;12424620;28;20061;-80
2023/03/10 03:37:43;;;;;;;52.08;8.02;;;2.30;99.90;;;;;;12416024;28;20280;-80
2023/03/10 03:43:45;;;;;;;14.80;7.25;;;2.40;99.90;;;;;;12403869;28;20430;-80
2023/03/10 03:49:47;;;;;;;17.65;10.10;;;3.00;99.90;;;;;;12414043;28;20410;-80
2023/03/10 03:55:50;;;;;;;15.05;9.20;;;4.50;99.90;;;;;;12414254;28;20095;-80
2023/03/10 04:01:52;;;;;;;15.70;10.13;;;4.70;99.90;;;;;;12443442;28;20053;-79
2023/03/10 04:07:54;;;;;;;16.85;10.20;;;4.40;99.90;;;;;;12418885;28;20054;-81
2023/03/10 04:13:56;;;;;;;16.67;9.25;;;4.20;99.90;;;;;;12407669;28;20049;-81
2023/03/10 04:19:58;;;;;;;18.17;9.15;;;4.00;99.90;;;;;;12401019;28;20046;-81
2023/03/10 04:26:09;;;;;;;12.52;7.03;;;3.50;99.90;;;;;;12417054;28;20125;-81
2023/03/10 04:32:11;;;;;;;14.27;8.43;;;3.20;99.90;;;;;;12420729;28;20498;-81
2023/03/10 04:38:15;;;;;;;12.90;8.88;;;2.90;99.90;;;;;;12441132;28;20111;-79
2023/03/10 04:44:17;;;;;;;12.75;7.63;;;2.80;99.90;;;;;;12418432;28;20046;-81
2023/03/10 04:50:32;;;;;;;13.48;7.80;;;2.80;99.90;;;;;;12436516;28;20384;-79
2023/03/10 04:56:33;;;;;;;11.20;7.60;;;2.60;99.90;;;;;;12432501;28;20503;-79
2023/03/10 05:02:36;;;;;;;14.52;7.88;;;2.40;99.90;;;;;;12429823;28;20723;-79
2023/03/10 05:08:38;;;;;;;12.70;8.15;;;2.50;99.90;;;;;;12417320;28;20498;-78
2023/03/10 05:14:40;;;;;;;13.27;8.90;;;2.40;99.90;;;;;;12414510;28;20057;-79
2023/03/10 05:20:42;;;;;;;14.15;9.27;;;2.40;99.90;;;;;;12410284;28;20085;-79
2023/03/10 05:26:44;;;;;;;14.65;9.00;;;2.30;99.90;;;;;;12408379;28;20050;-79
2023/03/10 05:32:46;;;;;;;13.48;9.00;;;2.30;99.90;;;;;;12394454;28;20054;-79
2023/03/10 05:38:48;;;;;;;14.38;9.30;;;2.30;99.90;;;;;;12412044;28;20041;-79
2023/03/10 05:44:50;;;;;;;13.52;9.00;;;2.30;99.90;;;;;;12417737;28;20042;-79
2023/03/10 05:51:00;;;;;;;15.02;9.27;;;2.30;99.90;;;;;;12409468;28;20123;-79
2023/03/10 05:57:02;;;;;;;13.35;7.35;;;2.20;99.90;;;;;;12416947;28;20077;-79
2023/03/10 06:03:04;;;;;;;8.77;5.95;;;2.20;99.90;;;;;;12407271;28;20042;-79
2023/03/10 06:09:06;;;;;;;9.98;5.68;;;2.20;99.90;;;;;;12422917;28;20418;-80
2023/03/10 06:15:09;;;;;;;12.60;6.25;;;2.10;99.90;;;;;;12398664;28;20406;-79
2023/03/10 06:21:13;;;;;;;42.10;7.53;;;1.90;99.90;;;;;;12410307;28;20053;-79
2023/03/10 06:27:15;;;;;;;10.40;5.55;;;1.90;99.90;;;;;;12416630;28;20056;-79
2023/03/10 06:33:17;;;;;;;11.63;5.65;;;1.90;99.90;;;;;;12421713;28;20440;-79
2023/03/10 06:39:19;;;;;;;99.43;8.55;;;2.00;99.90;;;;;;12417890;28;20099;-78
2023/03/10 06:45:21;;;;;;;10.75;6.20;;;1.90;99.90;;;;;;12419896;28;20101;-79
2023/03/10 06:51:24;;;;;;;37.78;8.20;;;2.00;99.90;;;;;;12413946;28;20050;-79
2023/03/10 06:57:26;;;;;;;101.82;9.45;;;2.10;99.90;;;;;;12445857;28;20418;-78
2023/03/10 07:03:28;;;;;;;84.10;10.25;;;2.10;99.90;;;;;;12415535;28;20066;-79
2023/03/10 07:09:30;;;;;;;129.00;12.93;;;2.10;99.90;;;;;;12424142;28;20352;-79
2023/03/10 07:15:32;;;;;;;262.70;18.60;;;2.20;99.90;;;;;;12415078;28;20544;-78
2023/03/10 07:21:34;;;;;;;126.65;13.38;;;2.20;99.90;;;;;;12405409;28;20057;-78
2023/03/10 07:27:36;;;;;;;121.30;11.70;;;2.20;99.90;;;;;;12417688;28;20058;-79
2023/03/10 07:33:38;;;;;;;45.67;7.93;;;2.20;99.90;;;;;;12421773;28;20097;-78
2023/03/10 07:39:40;;;;;;;13.95;7.47;;;2.20;99.90;;;;;;12419571;28;20071;-80
2023/03/10 07:45:42;;;;;;;20.13;8.13;;;2.20;99.90;;;;;;12421820;28;21171;-79
2023/03/10 07:51:44;;;;;;;30.23;8.70;;;2.20;99.90;;;;;;12406211;28;20058;-80
2023/03/10 07:57:46;;;;;;;7.82;4.72;;;2.20;99.90;;;;;;12418238;28;20049;-80
2023/03/10 08:03:48;;;;;;;7.13;3.72;;;2.30;99.90;;;;;;12410742;28;20046;-79
2023/03/10 08:09:51;;;;;;;6.40;3.92;;;2.30;99.90;;;;;;12412193;28;20069;-79
2023/03/10 08:15:53;;;;;;;6.70;3.65;;;2.20;99.90;;;;;;12403204;28;20129;-79
2023/03/10 08:21:56;;;;;;;5.97;3.72;;;2.30;99.90;;;;;;12412551;28;20049;-79
2023/03/10 08:27:58;;;;;;;5.32;3.47;;;2.30;99.90;;;;;;12423760;28;20061;-79
2023/03/10 08:34:00;;;;;;;4.78;2.80;;;2.40;99.90;;;;;;12386622;28;20517;-79
2023/03/10 08:40:03;;;;;;;6.78;3.78;;;2.40;99.90;;;;;;12416871;28;20179;-79
2023/03/10 08:46:06;;;;;;;7.47;3.83;;;2.50;99.90;;;;;;12421228;28;20441;-79
2023/03/10 08:52:09;;;;;;;5.80;4.00;;;2.50;99.90;;;;;;12396763;28;21129;-79
2023/03/10 08:58:11;;;;;;;5.70;2.97;;;2.60;99.90;;;;;;12414586;28;20062;-78
2023/03/10 09:04:13;;;;;;;5.47;3.30;;;2.60;99.90;;;;;;12428005;28;20046;-79
2023/03/10 09:10:15;;;;;;;5.10;2.60;;;2.50;99.90;;;;;;12394023;28;20054;-78
2023/03/10 09:16:18;;;;;;;4.70;2.90;;;2.60;99.90;;;;;;12419144;28;20061;-79
2023/03/10 09:22:20;;;;;;;4.65;2.78;;;2.60;99.90;;;;;;12410073;28;20050;-78
2023/03/10 09:28:22;;;;;;;3.58;2.47;;;2.60;99.90;;;;;;12419273;28;20517;-78
2023/03/10 09:34:26;;;;;;;5.68;3.35;;;2.70;99.90;;;;;;12430306;28;20063;-78
2023/03/10 09:40:30;;;;;;;5.73;3.20;;;2.70;99.90;;;;;;12416268;28;20046;-79
2023/03/10 09:47:06;;;;;;;3.77;2.43;;;2.70;99.90;;;;;;12443398;28;20483;-78
2023/03/10 09:53:29;;;;;;;5.15;3.33;;;2.70;99.90;;;;;;12406646;28;20053;-79
2023/03/10 09:59:39;;;;;;;4.90;2.90;;;2.60;99.90;;;;;;12441622;28;20042;-79
2023/03/10 10:05:43;;;;;;;5.38;2.72;;;2.70;99.90;;;;;;12482825;28;20046;-79
2023/03/10 10:11:45;;;;;;;4.73;2.27;;;2.70;99.90;;;;;;12468437;28;20038;-79
2023/03/10 10:18:09;;;;;;;4.13;2.50;;;2.70;99.90;;;;;;12432959;28;20482;-79
2023/03/10 10:24:21;;;;;;;4.03;2.53;;;2.60;99.90;;;;;;12428521;28;20081;-78
2023/03/10 10:30:37;;;;;;;4.15;2.72;;;2.60;99.90;;;;;;12434401;28;20538;-79
2023/03/10 10:36:54;;;;;;;3.83;2.20;;;2.70;99.90;;;;;;12413667;28;20998;-80
2023/03/10 10:42:59;;;;;;;3.90;2.25;;;2.90;99.90;;;;;;12420122;28;20046;-79
2023/03/10 10:49:26;;;;;;;3.10;2.33;;;2.80;99.90;;;;;;12422619;28;20513;-80
2023/03/10 10:55:33;;;;;;;2.55;1.55;;;2.90;99.90;;;;;;12430349;28;20039;-80
2023/03/10 11:01:51;;;;;;;2.47;1.70;;;2.80;99.90;;;;;;12406083;28;20037;-80
2023/03/10 11:07:53;;;;;;;6.85;1.90;;;2.80;99.90;;;;;;12408577;28;20051;-79
2023/03/10 11:14:16;;;;;;;6.13;2.20;;;2.90;99.90;;;;;;12413792;28;20052;-79
2023/03/10 11:20:27;;;;;;;3.45;2.00;;;2.80;99.90;;;;;;12427872;28;20041;-79
2023/03/10 11:26:57;;;;;;;3.83;2.30;;;2.80;99.90;;;;;;12413314;28;20132;-80
2023/03/10 11:33:23;;;;;;;4.43;2.17;;;2.80;99.90;;;;;;12396713;28;20156;-80
2023/03/10 11:39:47;;;;;;;5.30;2.20;;;3.00;99.90;;;;;;12410344;28;20840;-80
2023/03/10 11:45:54;;;;;;;3.50;2.13;;;2.90;99.90;;;;;;12432212;28;20046;-80
2023/03/10 11:51:59;;;;;;;4.93;2.33;;;2.90;99.90;;;;;;12404774;28;20171;-80
2023/03/10 11:58:04;;;;;;;4.15;2.35;;;2.70;99.90;;;;;;12423429;28;20057;-80
2023/03/10 12:04:34;;;;;;;3.15;2.00;;;2.80;99.90;;;;;;12411550;28;20510;-80
2023/03/10 12:10:39;;;;;;;4.57;2.30;;;2.80;99.90;;;;;;12390469;28;20042;-80
2023/03/10 12:16:43;;;;;;;3.65;2.50;;;2.80;99.90;;;;;;12397907;28;20513;-79
2023/03/10 12:22:53;;;;;;;4.65;2.55;;;3.00;99.90;;;;;;12440294;28;20054;-80
2023/03/10 12:29:21;;;;;;;4.85;2.30;;;3.20;99.90;;;;;;12407958;28;20058;-80
2023/03/10 12:35:26;;;;;;;3.17;1.95;;;3.20;99.90;;;;;;12435918;28;20046;-79
2023/03/10 12:41:28;;;;;;;2.92;1.88;;;3.20;99.90;;;;;;12403995;28;20049;-79
2023/03/10 12:47:47;;;;;;;3.28;1.90;;;3.30;99.90;;;;;;12434858;28;20053;-79
2023/03/10 12:53:56;;;;;;;2.00;1.40;;;3.20;99.90;;;;;;12414327;28;20047;-80
2023/03/10 13:00:09;;;;;;;2.72;1.40;;;3.20;99.90;;;;;;12434805;28;20052;-79
2023/03/10 13:06:17;;;;;;;4.45;1.70;;;3.20;99.90;;;;;;12424100;28;20074;-79
2023/03/10 13:12:27;;;;;;;3.22;1.70;;;3.20;99.90;;;;;;12417548;28;20161;-79
2023/03/10 13:18:30;;;;;;;2.30;1.25;;;3.40;99.90;;;;;;12413549;28;20050;-79
2023/03/10 13:24:38;;;;;;;2.40;1.30;;;3.50;99.90;;;;;;12418474;28;20038;-79
2023/03/10 13:30:40;;;;;;;2.10;1.45;;;3.50;99.90;;;;;;12413839;28;20113;-79
2023/03/10 13:36:42;;;;;;;4.45;2.33;;;3.60;99.90;;;;;;12451780;28;20065;-79
2023/03/10 13:42:46;;;;;;;3.20;2.20;;;3.70;99.90;;;;;;12423141;28;20046;-79
2023/03/10 13:48:49;;;;;;;4.10;2.90;;;3.80;99.90;;;;;;12440482;28;20066;-80
2023/03/10 13:55:02;;;;;;;3.55;2.30;;;3.80;99.90;;;;;;12449053;28;20070;-79
2023/03/10 14:01:05;;;;;;;3.15;2.15;;;3.70;99.90;;;;;;12427841;28;20064;-78
2023/03/10 14:07:26;;;;;;;3.58;2.40;;;3.80;99.90;;;;;;12416414;28;20046;-79
2023/03/10 14:13:42;;;;;;;3.95;2.47;;;3.80;99.90;;;;;;12435840;28;20082;-79
2023/03/10 14:19:47;;;;;;;4.32;2.60;;;3.70;99.90;;;;;;12387093;28;20054;-78
2023/03/10 14:25:53;;;;;;;;;;;3.60;99.90;;;;;;12412215;28;20491;-78
2023/03/10 14:31:55;;;;;;;4.30;3.22;;;3.60;99.90;;;;;;12400329;28;19932;-78
2023/03/10 14:37:56;;;;;;;6.35;4.35;;;3.60;99.90;;;;;;12423604;28;20230;-79
2023/03/10 14:44:00;;;;;;;5.20;4.15;;;3.70;99.90;;;;;;12436118;28;20088;-78
2023/03/10 14:50:02;;;;;;;6.97;4.03;;;3.50;99.90;;;;;;12423101;28;20046;-78
2023/03/10 14:56:04;;;;;;;7.97;3.83;;;3.50;99.90;;;;;;12404820;28;20057;-78
2023/03/10 15:02:24;;;;;;;5.55;3.85;;;3.50;99.90;;;;;;12412002;28;20042;-79
2023/03/10 15:08:25;;;;;;;6.75;4.30;;;3.60;99.90;;;;;;12416916;28;20145;-77
2023/03/10 15:14:31;;;;;;;5.45;3.67;;;3.50;99.90;;;;;;12410062;28;20088;-79
2023/03/10 15:20:33;;;;;;;5.70;3.95;;;3.50;99.90;;;;;;12432673;28;20045;-78
2023/03/10 15:26:35;;;;;;;6.07;4.63;;;3.40;99.90;;;;;;12448914;28;20407;-78
2023/03/10 15:32:37;;;;;;;7.57;4.32;;;3.50;99.90;;;;;;12403202;28;20068;-80
2023/03/10 15:38:39;;;;;;;6.18;4.43;;;3.40;99.90;;;;;;12430359;28;21080;-79
2023/03/10 15:44:41;;;;;;;7.55;4.43;;;3.40;99.90;;;;;;12425139;28;20057;-79
2023/03/10 15:50:47;;;;;;;7.15;4.60;;;3.50;99.90;;;;;;12416518;28;20073;-80
2023/03/10 15:56:49;;;;;;;6.68;4.30;;;3.40;99.90;;;;;;12414388;28;20069;-79
2023/03/10 16:02:52;;;;;;;6.90;4.60;;;3.40;99.90;;;;;;12419716;28;20108;-80
2023/03/10 16:08:55;;;;;;;8.70;4.88;;;3.30;99.90;;;;;;12423127;28;20500;-79
2023/03/10 16:14:57;;;;;;;8.02;3.92;;;3.30;99.90;;;;;;12408030;28;20099;-80
2023/03/10 16:21:01;;;;;;;6.50;3.75;;;3.30;99.90;;;;;;12408484;28;20068;-79
2023/03/10 16:27:03;;;;;;;4.67;3.13;;;3.30;99.90;;;;;;12424713;28;20183;-79
2023/03/10 16:33:05;;;;;;;4.93;2.67;;;3.40;99.90;;;;;;12420919;28;20049;-79
2023/03/10 16:39:08;;;;;;;4.70;2.95;;;3.20;99.90;;;;;;12404005;28;20081;-78
2023/03/10 16:45:11;;;;;;;4.47;2.95;;;3.20;99.90;;;;;;12405788;28;20572;-78
2023/03/10 16:51:35;;;;;;;4.95;2.72;;;3.20;99.90;;;;;;12410772;28;20054;-79
2023/03/10 16:57:37;;;;;;;4.30;3.08;;;3.10;99.90;;;;;;12417529;28;20051;-79
2023/03/10 17:03:40;;;;;;;7.38;3.40;;;3.10;99.90;;;;;;12412279;28;20046;-79
2023/03/10 17:09:44;;;;;;;5.88;4.18;;;3.00;99.90;;;;;;12406443;28;20078;-80
2023/03/10 17:15:46;;;;;;;4.63;3.63;;;2.90;99.90;;;;;;12418352;28;20053;-80
2023/03/10 17:21:51;;;;;;;6.15;4.07;;;2.90;99.90;;;;;;12413824;28;20092;-79
2023/03/10 17:27:52;;;;;;;;;;;2.80;99.90;;;;;;12425317;28;20049;-79
2023/03/10 17:33:58;;;;;;;4.75;2.90;;;2.80;99.90;;;;;;12410255;28;19921;-78
2023/03/10 17:40:00;;;;;;;3.92;2.05;;;2.70;99.90;;;;;;12418685;28;20111;-79
2023/03/10 17:46:09;;;;;;;3.85;2.40;;;2.60;99.90;;;;;;12416645;28;20087;-79
2023/03/10 17:52:11;;;;;;;4.88;2.55;;;2.60;99.90;;;;;;12417131;28;20060;-80
2023/03/10 17:58:13;;;;;;;3.72;2.40;;;2.60;99.90;;;;;;12425100;28;20054;-80
2023/03/10 18:04:15;;;;;;;4.82;2.72;;;2.50;99.90;;;;;;12431253;28;20276;-80
2023/03/10 18:10:21;;;;;;;5.18;2.90;;;2.30;99.90;;;;;;12418910;28;20058;-80
2023/03/10 18:16:29;;;;;;;6.10;3.60;;;1.90;99.90;;;;;;12435118;28;20054;-82
2023/03/10 18:22:31;;;;;;;5.43;2.95;;;1.50;99.90;;;;;;12437819;28;20046;-81
2023/03/10 18:28:34;;;;;;;6.20;3.72;;;1.40;99.90;;;;;;12412824;28;20414;-81
2023/03/10 18:34:35;;;;;;;4.68;2.97;;;1.10;99.90;;;;;;12438284;28;20089;-81
2023/03/10 18:40:38;;;;;;;5.38;2.90;;;1.00;99.90;;;;;;12413632;28;20119;-80
2023/03/10 18:46:40;;;;;;;6.40;2.65;;;0.90;99.90;;;;;;12432735;28;20049;-80
2023/03/10 18:52:44;;;;;;;6.70;3.15;;;0.80;99.90;;;;;;12445002;28;20494;-80
2023/03/10 18:58:46;;;;;;;6.47;3.67;;;0.70;99.90;;;;;;12441218;28;20119;-78
2023/03/10 19:04:48;;;;;;;8.00;4.70;;;0.70;99.90;;;;;;12427310;28;20132;-80
2023/03/10 19:10:56;;;;;;;10.10;5.55;;;0.50;99.90;;;;;;12426154;28;20038;-81
2023/03/10 19:30:49;;;;;;;12.20;7.28;;;0.50;99.90;;;;;;15675895;22;1313516;-35
2023/03/10 19:36:51;;;;;;;10.40;6.47;;;0.40;99.90;;;;;;15752027;22;20033;-35
2023/03/10 19:42:54;;;;;;;11.60;6.60;;;0.50;99.90;;;;;;15659342;22;20024;-83
2023/03/10 19:48:56;;;;;;;11.13;7.20;;;0.40;99.90;;;;;;15558969;22;20022;-84
2023/03/10 19:54:58;;;;;;;12.13;7.20;;;0.40;99.90;;;;;;15581899;22;20023;-83
2023/03/10 20:01:00;;;;;;;12.05;7.40;;;0.40;99.90;;;;;;15534553;22;20040;-84
2023/03/10 20:07:02;;;;;;;14.73;8.55;;;0.40;99.90;;;;;;15539811;22;20499;-37
2023/03/10 20:13:04;;;;;;;13.75;8.63;;;0.30;99.90;;;;;;15517193;23;20103;-38
2023/03/10 20:19:06;;;;;;;14.48;9.15;;;0.30;99.90;;;;;;15483992;23;20015;-37
2023/03/10 20:25:10;;;;;;;18.08;11.10;;;0.40;99.90;;;;;;15508480;22;20036;-37
2023/03/10 20:31:21;;;;;;;18.23;10.68;;;0.30;99.90;;;;;;15499323;23;20028;-38
2023/03/10 20:37:23;;;;;;;15.75;9.77;;;0.30;99.90;;;;;;15492311;23;20020;-38
2023/03/10 20:43:25;;;;;;;18.75;10.35;;;0.30;99.90;;;;;;15449549;23;20031;-38
2023/03/10 20:49:28;;;;;;;19.52;11.48;;;0.30;99.90;;;;;;15427789;23;20024;-38
2023/03/10 20:55:30;;;;;;;17.55;10.25;;;0.30;99.90;;;;;;15425388;23;20104;-38
2023/03/10 21:01:35;;;;;;;16.25;9.75;;;0.30;99.90;;;;;;15420345;23;20096;-38
2023/03/10 21:07:37;;;;;;;15.60;9.35;;;0.30;99.90;;;;;;15425115;23;20031;-38
2023/03/10 21:13:39;;;;;;;15.63;9.07;;;0.20;99.90;;;;;;15423857;23;20032;-38
2023/03/10 21:19:41;;;;;;;14.02;8.60;;;0.30;99.90;;;;;;15423618;23;20064;-37
2023/03/10 21:25:44;;;;;;;14.98;8.63;;;0.30;99.90;;;;;;15426531;23;20032;-38
2023/03/10 21:31:46;;;;;;;12.30;7.55;;;0.30;99.90;;;;;;15425300;23;20052;-35
2023/03/10 21:37:48;;;;;;;13.07;7.30;;;0.30;99.90;;;;;;15423655;23;20063;-35
2023/03/10 21:43:51;;;;;;;12.38;7.25;;;0.30;99.90;;;;;;15422366;23;20473;-38
2023/03/10 21:49:54;;;;;;;12.43;7.90;;;0.20;99.90;;;;;;15423112;23;20028;-37
2023/03/10 21:55:56;;;;;;;14.80;8.80;;;0.30;99.90;;;;;;15414801;23;20062;-38
2023/03/10 22:01:58;;;;;;;14.80;7.63;;;0.30;99.90;;;;;;15419686;23;20095;-38
2023/03/10 22:08:00;;;;;;;14.00;8.30;;;0.30;99.90;;;;;;15416706;23;20127;-37
2023/03/10 22:14:02;;;;;;;14.07;8.05;;;0.30;99.90;;;;;;15417904;23;20040;-37
2023/03/10 22:20:07;;;;;;;13.77;6.40;;;0.30;99.90;;;;;;15416454;23;20027;-40
2023/03/10 22:26:10;;;;;;;14.95;7.68;;;0.20;99.90;;;;;;15350711;23;20024;-40
2023/03/10 22:32:13;;;;;;;11.82;7.05;;;0.20;99.90;;;;;;15421265;23;20375;-40
2023/03/10 22:38:15;;;;;;;14.43;7.30;;;0.30;99.90;;;;;;15423434;23;20315;-40
2023/03/10 22:44:17;;;;;;;10.32;6.15;;;0.20;99.90;;;;;;15416820;23;20393;-40
2023/03/10 22:50:26;;;;;;;11.13;6.72;;;0.20;99.90;;;;;;15416402;23;20480;-39
2023/03/10 22:56:28;;;;;;;9.88;5.97;;;0.20;99.90;;;;;;15421146;23;20079;-40
2023/03/10 23:02:29;;;;;;;8.68;4.80;;;0.20;99.90;;;;;;15416233;23;20412;-40
2023/03/10 23:08:31;;;;;;;9.80;5.05;;;0.30;99.90;;;;;;15417105;23;20028;-40
2023/03/10 23:14:33;;;;;;;9.55;4.28;;;0.30;99.90;;;;;;15414395;23;20107;-40
2023/03/10 23:20:42;;;;;;;8.00;4.05;;;0.20;99.90;;;;;;15419630;23;20673;-40
2023/03/10 23:26:44;;;;;;;6.30;3.28;;;0.10;99.90;;;;;;15394076;23;20445;-40
2023/03/10 23:32:48;;;;;;;4.65;3.05;;;0.10;99.90;;;;;;15416486;23;20056;-38
2023/03/10 23:38:50;;;;;;;;;;;0.10;99.90;;;;;;15421580;23;20341;-40
2023/03/10 23:44:52;;;;;;;5.75;2.65;;;0.00;99.90;;;;;;15414685;23;19916;-40
2023/03/10 23:50:54;;;;;;;8.35;3.55;;;0.10;99.90;;;;;;15422375;23;20044;-40
2023/03/10 23:56:56;;;;;;;5.65;3.22;;;0.00;99.90;;;;;;15419569;23;20020;-40
